Time;durP1;ratioP1;P1;durP2;ratioP2;P2;SDS_P1;SDS_P2;PMS_P1;PMS_P2;Temp;Humidity;BMP_temperature;BMP_pressure;BME280_temperature;BME280_humidity;BME280_pressure;Samples;Min_cycle;Max_cycle;Signal;HPM_P1;HPM_P2
2021/08/20 00:01:41;;;;;;;7.40;4.47;;;;;;;;;;5048353;28;20056;-87
2021/08/20 00:04:25;;;;;;;6.60;4.32;;;;;;;;;;5047361;28;20040;-88
2021/08/20 00:07:10;;;;;;;6.90;4.75;;;;;;;;;;5047747;28;20531;-78
2021/08/20 00:09:56;;;;;;;6.55;4.35;;;;;;;;;;5048284;28;20113;-88
2021/08/20 00:12:41;;;;;;;6.60;4.50;;;;;;;;;;5047337;28;20048;-87
2021/08/20 00:15:26;;;;;;;8.05;5.15;;;;;;;;;;5047165;28;20461;-88
2021/08/20 00:18:10;;;;;;;6.68;4.20;;;;;;;;;;5031239;28;20139;-87
2021/08/20 00:20:55;;;;;;;6.25;4.30;;;;;;;;;;5031438;28;20056;-89
2021/08/20 00:23:39;;;;;;;6.38;4.63;;;;;;;;;;5032658;28;20036;-87
2021/08/20 00:26:24;;;;;;;6.60;4.70;;;;;;;;;;5046314;28;20048;-87
2021/08/20 00:29:08;;;;;;;6.90;4.78;;;;;;;;;;5031687;28;20040;-87
2021/08/20 00:31:53;;;;;;;7.13;4.60;;;;;;;;;;5037736;28;20048;-88
2021/08/20 00:34:37;;;;;;;8.45;5.25;;;;;;;;;;5044795;28;20036;-86
2021/08/20 00:37:22;;;;;;;6.80;4.60;;;;;;;;;;5046994;28;20117;-88
2021/08/20 00:40:07;;;;;;;6.82;4.72;;;;;;;;;;5047528;28;20074;-87
2021/08/20 00:42:51;;;;;;;7.05;4.25;;;;;;;;;;5046470;28;20048;-87
2021/08/20 00:45:36;;;;;;;6.10;4.68;;;;;;;;;;5046545;28;20040;-87
2021/08/20 00:48:21;;;;;;;8.00;5.40;;;;;;;;;;5046521;28;20195;-88
2021/08/20 00:51:15;;;;;;;7.25;4.85;;;;;;;;;;5046358;28;20044;-76
2021/08/20 00:54:00;;;;;;;6.63;4.85;;;;;;;;;;5048022;28;20047;-87
2021/08/20 00:56:44;;;;;;;7.38;5.15;;;;;;;;;;5046534;28;20576;-87
2021/08/20 00:59:29;;;;;;;6.95;4.88;;;;;;;;;;5043998;28;20044;-86
2021/08/20 01:02:14;;;;;;;7.05;4.97;;;;;;;;;;5046419;28;20110;-87
2021/08/20 01:04:58;;;;;;;7.60;5.28;;;;;;;;;;5046218;28;20036;-87
2021/08/20 01:07:43;;;;;;;7.45;5.20;;;;;;;;;;5047368;28;20504;-88
2021/08/20 01:10:27;;;;;;;6.82;4.95;;;;;;;;;;5045890;28;20531;-87
2021/08/20 01:13:12;;;;;;;6.47;4.55;;;;;;;;;;5042380;28;20159;-88
2021/08/20 01:15:56;;;;;;;7.57;5.25;;;;;;;;;;5032366;28;20051;-86
2021/08/20 01:18:41;;;;;;;6.93;4.70;;;;;;;;;;5047089;28;20086;-87
2021/08/20 01:21:26;;;;;;;6.88;4.72;;;;;;;;;;5045413;28;20052;-87
2021/08/20 01:24:11;;;;;;;6.25;4.63;;;;;;;;;;5046001;28;20454;-87
2021/08/20 01:26:56;;;;;;;6.00;4.60;;;;;;;;;;5046627;28;20142;-87
2021/08/20 01:29:40;;;;;;;7.03;4.85;;;;;;;;;;5045200;28;20525;-87
2021/08/20 01:32:25;;;;;;;6.95;4.88;;;;;;;;;;5046151;28;20048;-89
2021/08/20 01:35:10;;;;;;;7.38;4.80;;;;;;;;;;5045687;28;20071;-87
2021/08/20 01:37:54;;;;;;;8.18;4.80;;;;;;;;;;5045633;28;20933;-87
2021/08/20 01:40:39;;;;;;;5.78;4.75;;;;;;;;;;5030207;28;20056;-88
2021/08/20 01:43:23;;;;;;;7.00;4.95;;;;;;;;;;5045244;28;20039;-77
2021/08/20 01:46:08;;;;;;;6.95;4.65;;;;;;;;;;5047109;28;20815;-87
2021/08/20 01:48:53;;;;;;;6.75;4.82;;;;;;;;;;5047418;28;20111;-87
2021/08/20 01:51:38;;;;;;;6.55;5.10;;;;;;;;;;5046941;28;20051;-86
2021/08/20 01:54:22;;;;;;;6.38;4.65;;;;;;;;;;5048174;28;20406;-88
2021/08/20 01:57:07;;;;;;;6.40;4.60;;;;;;;;;;5046647;28;20044;-88
2021/08/20 01:59:51;;;;;;;6.30;4.75;;;;;;;;;;5046544;28;20035;-87
2021/08/20 02:02:36;;;;;;;7.05;4.82;;;;;;;;;;5045021;28;20051;-88
2021/08/20 02:05:21;;;;;;;6.72;4.72;;;;;;;;;;5046961;28;20684;-86
2021/08/20 02:08:05;;;;;;;5.72;4.47;;;;;;;;;;5034037;28;20063;-87
2021/08/20 02:10:51;;;;;;;6.25;4.43;;;;;;;;;;5045368;28;20047;-88
2021/08/20 02:13:36;;;;;;;6.97;4.82;;;;;;;;;;5046172;28;20063;-88
2021/08/20 02:16:21;;;;;;;5.88;4.28;;;;;;;;;;5046586;28;20398;-88
2021/08/20 02:19:06;;;;;;;6.03;4.80;;;;;;;;;;5048757;28;20087;-87
2021/08/20 02:21:50;;;;;;;5.88;4.45;;;;;;;;;;5046960;28;20051;-87
2021/08/20 02:24:35;;;;;;;6.72;5.20;;;;;;;;;;5045386;28;20167;-88
2021/08/20 02:27:19;;;;;;;6.60;4.55;;;;;;;;;;5044869;28;20752;-88
2021/08/20 02:30:05;;;;;;;6.20;4.50;;;;;;;;;;5046206;28;20039;-87
2021/08/20 02:32:49;;;;;;;6.72;4.78;;;;;;;;;;5046534;28;20044;-87
2021/08/20 02:35:34;;;;;;;6.20;4.38;;;;;;;;;;5043012;28;20047;-87
2021/08/20 02:38:18;;;;;;;5.97;4.70;;;;;;;;;;5045192;28;20103;-87
2021/08/20 02:41:03;;;;;;;6.18;4.88;;;;;;;;;;5046942;28;20060;-87
2021/08/20 02:43:47;;;;;;;6.60;4.68;;;;;;;;;;5047122;28;20059;-87
2021/08/20 02:46:32;;;;;;;6.43;4.55;;;;;;;;;;5047192;28;20051;-88
2021/08/20 02:49:16;;;;;;;6.38;4.88;;;;;;;;;;5047627;28;20133;-87
2021/08/20 02:52:01;;;;;;;6.55;4.57;;;;;;;;;;5050051;28;20048;-88
2021/08/20 02:54:45;;;;;;;6.13;4.65;;;;;;;;;;5050795;28;20095;-89
2021/08/20 02:57:30;;;;;;;6.10;4.63;;;;;;;;;;5051995;28;20425;-87
2021/08/20 03:00:14;;;;;;;5.38;4.43;;;;;;;;;;5050869;28;20497;-88
2021/08/20 03:02:59;;;;;;;6.40;4.82;;;;;;;;;;5051144;28;20059;-88
2021/08/20 03:05:44;;;;;;;6.07;4.75;;;;;;;;;;5050044;28;20043;-87
2021/08/20 03:08:28;;;;;;;6.30;4.90;;;;;;;;;;5051626;28;20098;-87
2021/08/20 03:11:13;;;;;;;6.75;4.90;;;;;;;;;;5035843;28;20159;-87
2021/08/20 03:13:58;;;;;;;7.20;5.25;;;;;;;;;;5036814;28;20047;-87
2021/08/20 03:16:43;;;;;;;6.03;4.43;;;;;;;;;;5051629;28;20043;-88
2021/08/20 03:19:28;;;;;;;6.63;5.05;;;;;;;;;;5051140;28;20099;-87
2021/08/20 03:22:12;;;;;;;5.95;4.63;;;;;;;;;;5051467;28;20119;-87
2021/08/20 03:24:57;;;;;;;6.22;4.57;;;;;;;;;;5051341;28;20043;-86
2021/08/20 03:27:41;;;;;;;7.35;4.80;;;;;;;;;;5051714;28;20060;-88
2021/08/20 03:30:26;;;;;;;6.03;4.60;;;;;;;;;;5049616;28;20116;-88
2021/08/20 03:33:12;;;;;;;5.57;4.50;;;;;;;;;;5050344;28;20056;-87
2021/08/20 03:35:57;;;;;;;6.00;4.28;;;;;;;;;;5050368;28;20402;-87
2021/08/20 03:38:41;;;;;;;6.55;4.80;;;;;;;;;;5051219;28;20035;-88
2021/08/20 03:41:27;;;;;;;5.95;4.28;;;;;;;;;;5050860;28;20049;-87
2021/08/20 03:44:12;;;;;;;6.97;4.80;;;;;;;;;;5051037;28;20036;-87
2021/08/20 03:46:57;;;;;;;7.30;5.03;;;;;;;;;;5049663;28;20102;-88
2021/08/20 03:49:41;;;;;;;6.20;4.28;;;;;;;;;;5049070;28;20094;-87
2021/08/20 03:52:26;;;;;;;6.70;5.03;;;;;;;;;;5050894;28;20147;-87
2021/08/20 03:55:10;;;;;;;5.90;4.50;;;;;;;;;;5049853;28;20871;-87
2021/08/20 03:57:55;;;;;;;6.13;4.50;;;;;;;;;;5038880;28;20521;-88
2021/08/20 04:00:40;;;;;;;7.22;5.10;;;;;;;;;;5049511;28;20048;-87
2021/08/20 04:03:25;;;;;;;6.88;4.82;;;;;;;;;;5049142;28;20084;-88
2021/08/20 04:06:10;;;;;;;6.35;5.00;;;;;;;;;;5050625;28;20067;-87
2021/08/20 04:08:54;;;;;;;7.22;5.00;;;;;;;;;;5048093;28;20090;-87
2021/08/20 04:11:39;;;;;;;7.05;4.82;;;;;;;;;;5048778;28;20082;-87
2021/08/20 04:14:23;;;;;;;7.85;4.97;;;;;;;;;;5050432;28;20489;-87
2021/08/20 04:17:08;;;;;;;6.43;4.30;;;;;;;;;;5050654;28;20477;-87
2021/08/20 04:19:53;;;;;;;8.70;5.30;;;;;;;;;;5048317;28;20052;-87
2021/08/20 04:22:37;;;;;;;8.10;5.05;;;;;;;;;;5048987;28;20051;-87
2021/08/20 04:25:22;;;;;;;6.65;4.93;;;;;;;;;;5048892;28;20039;-87
2021/08/20 04:28:06;;;;;;;8.85;5.47;;;;;;;;;;5046912;28;20079;-86
2021/08/20 04:30:51;;;;;;;9.55;5.65;;;;;;;;;;5050089;28;20059;-87
2021/08/20 04:33:36;;;;;;;7.88;5.10;;;;;;;;;;5050299;28;20044;-87
2021/08/20 04:36:21;;;;;;;8.38;5.22;;;;;;;;;;5049032;28;20048;-87
2021/08/20 04:39:05;;;;;;;8.68;5.50;;;;;;;;;;5049139;28;20044;-87
2021/08/20 04:41:50;;;;;;;7.10;5.07;;;;;;;;;;5048412;28;20055;-87
2021/08/20 04:44:34;;;;;;;8.98;5.35;;;;;;;;;;5047618;28;20083;-87
2021/08/20 04:47:19;;;;;;;8.68;5.60;;;;;;;;;;5049030;28;20043;-86
2021/08/20 04:50:04;;;;;;;9.10;5.68;;;;;;;;;;5047600;28;20398;-87
2021/08/20 04:52:49;;;;;;;7.68;4.63;;;;;;;;;;5046764;28;20040;-87
2021/08/20 04:55:33;;;;;;;8.63;4.90;;;;;;;;;;5030639;28;20063;-76
2021/08/20 04:58:18;;;;;;;8.63;5.82;;;;;;;;;;5046108;28;20421;-87
2021/08/20 05:01:03;;;;;;;8.65;5.07;;;;;;;;;;5044908;28;20676;-87
2021/08/20 05:03:48;;;;;;;7.57;4.40;;;;;;;;;;5046449;28;20414;-87
2021/08/20 05:06:33;;;;;;;6.50;4.55;;;;;;;;;;5046642;28;20102;-86
2021/08/20 05:09:18;;;;;;;7.30;4.68;;;;;;;;;;5046449;28;20036;-87
2021/08/20 05:12:02;;;;;;;9.57;5.53;;;;;;;;;;5032588;28;20696;-88
2021/08/20 05:14:47;;;;;;;6.68;4.38;;;;;;;;;;5045525;28;20236;-87
2021/08/20 05:17:31;;;;;;;6.85;4.50;;;;;;;;;;5046148;28;20817;-86
2021/08/20 05:20:16;;;;;;;8.20;5.10;;;;;;;;;;5044929;28;20048;-86
2021/08/20 05:23:00;;;;;;;7.72;4.47;;;;;;;;;;5044462;28;20635;-87
2021/08/20 05:25:45;;;;;;;7.82;4.95;;;;;;;;;;5047041;28;20440;-86
2021/08/20 05:28:29;;;;;;;7.50;5.22;;;;;;;;;;5046920;28;20043;-86
2021/08/20 05:31:14;;;;;;;7.78;5.00;;;;;;;;;;5045722;28;20075;-87
2021/08/20 05:33:58;;;;;;;8.48;5.15;;;;;;;;;;5045981;28;20775;-87
2021/08/20 05:36:43;;;;;;;8.60;5.20;;;;;;;;;;5030417;28;20097;-86
2021/08/20 05:39:27;;;;;;;8.55;5.20;;;;;;;;;;5031747;28;20071;-87
2021/08/20 05:42:12;;;;;;;7.68;5.18;;;;;;;;;;5045055;28;20471;-87
2021/08/20 05:44:56;;;;;;;8.05;4.80;;;;;;;;;;5045910;28;20040;-87
2021/08/20 05:47:41;;;;;;;8.73;5.22;;;;;;;;;;5030881;28;20079;-87
2021/08/20 05:50:26;;;;;;;7.97;5.10;;;;;;;;;;5031212;28;20036;-87
2021/08/20 05:53:10;;;;;;;8.55;5.38;;;;;;;;;;5045430;28;20177;-87
2021/08/20 05:55:55;;;;;;;9.82;6.18;;;;;;;;;;5044626;28;20564;-86
2021/08/20 05:58:40;;;;;;;10.13;5.63;;;;;;;;;;5046351;28;20039;-86
2021/08/20 06:01:25;;;;;;;8.45;5.35;;;;;;;;;;5044061;28;20121;-86
2021/08/20 06:04:09;;;;;;;7.85;5.50;;;;;;;;;;5046469;28;20051;-85
2021/08/20 06:06:54;;;;;;;7.93;5.30;;;;;;;;;;5046280;28;20051;-83
2021/08/20 06:09:38;;;;;;;8.30;5.60;;;;;;;;;;5045060;28;20087;-86
2021/08/20 06:12:24;;;;;;;7.38;5.28;;;;;;;;;;5046258;28;20062;-86
2021/08/20 06:15:09;;;;;;;8.75;5.45;;;;;;;;;;5030032;28;20822;-87
2021/08/20 06:17:53;;;;;;;8.40;5.13;;;;;;;;;;5043221;28;20043;-83
2021/08/20 06:20:38;;;;;;;7.88;5.13;;;;;;;;;;5044741;28;20075;-86
2021/08/20 06:23:23;;;;;;;9.10;5.55;;;;;;;;;;5029709;28;20639;-86
2021/08/20 06:26:08;;;;;;;8.65;5.13;;;;;;;;;;5028006;28;20504;-87
2021/08/20 06:28:53;;;;;;;7.38;5.30;;;;;;;;;;5045154;28;20047;-87
2021/08/20 06:31:37;;;;;;;12.35;5.90;;;;;;;;;;5045506;28;20123;-86
2021/08/20 06:34:23;;;;;;;7.45;4.72;;;;;;;;;;5045818;28;20040;-86
2021/08/20 06:37:07;;;;;;;8.88;5.70;;;;;;;;;;5045913;28;20068;-86
2021/08/20 06:39:52;;;;;;;8.45;5.25;;;;;;;;;;5044679;28;20048;-83
2021/08/20 06:42:36;;;;;;;9.13;5.22;;;;;;;;;;5044536;28;20135;-86
2021/08/20 06:45:21;;;;;;;6.45;4.63;;;;;;;;;;5044571;28;20043;-87
2021/08/20 06:48:05;;;;;;;8.15;5.00;;;;;;;;;;5044753;28;20074;-87
2021/08/20 06:50:51;;;;;;;8.25;4.72;;;;;;;;;;5043534;28;20417;-85
2021/08/20 06:53:36;;;;;;;7.22;4.43;;;;;;;;;;5044577;28;20441;-86
2021/08/20 06:56:21;;;;;;;7.53;4.68;;;;;;;;;;5045384;28;20052;-86
2021/08/20 06:59:05;;;;;;;7.25;4.65;;;;;;;;;;5044623;28;20051;-86
2021/08/20 07:01:50;;;;;;;8.00;5.13;;;;;;;;;;5044148;28;20451;-86
2021/08/20 07:04:35;;;;;;;7.28;5.20;;;;;;;;;;5044521;28;20035;-86
2021/08/20 07:07:20;;;;;;;5.85;4.25;;;;;;;;;;5030986;28;20056;-86
2021/08/20 07:10:06;;;;;;;8.00;5.18;;;;;;;;;;5029544;28;20044;-86
2021/08/20 07:12:50;;;;;;;7.63;4.80;;;;;;;;;;5044422;28;20398;-86
2021/08/20 07:15:35;;;;;;;7.97;4.88;;;;;;;;;;5045601;28;20577;-86
2021/08/20 07:18:19;;;;;;;9.30;5.03;;;;;;;;;;5044677;28;20036;-84
2021/08/20 07:21:04;;;;;;;7.88;5.20;;;;;;;;;;5044318;28;20075;-85
2021/08/20 07:23:49;;;;;;;8.32;5.55;;;;;;;;;;5030198;28;20087;-86
2021/08/20 07:26:34;;;;;;;9.30;6.07;;;;;;;;;;5044682;28;20044;-86
2021/08/20 07:29:18;;;;;;;9.50;5.25;;;;;;;;;;5043549;28;20040;-86
2021/08/20 07:32:03;;;;;;;7.57;5.15;;;;;;;;;;5044217;28;20040;-86
2021/08/20 07:34:47;;;;;;;7.82;5.25;;;;;;;;;;5045144;28;20745;-86
2021/08/20 07:37:32;;;;;;;7.85;4.75;;;;;;;;;;5046745;28;20040;-86
2021/08/20 07:40:16;;;;;;;8.13;4.93;;;;;;;;;;5033306;28;20039;-86
2021/08/20 07:43:01;;;;;;;7.88;5.50;;;;;;;;;;5047341;28;20044;-86
2021/08/20 07:45:45;;;;;;;9.50;5.45;;;;;;;;;;5046188;28;20090;-85
2021/08/20 07:48:30;;;;;;;9.05;5.97;;;;;;;;;;5048841;28;20044;-85
2021/08/20 07:51:15;;;;;;;9.25;5.28;;;;;;;;;;5046821;28;20098;-85
2021/08/20 07:54:00;;;;;;;9.23;5.85;;;;;;;;;;5047626;28;20488;-86
2021/08/20 07:56:44;;;;;;;8.38;5.57;;;;;;;;;;5047300;28;20462;-86
2021/08/20 07:59:29;;;;;;;7.70;5.10;;;;;;;;;;5049176;28;20044;-84
2021/08/20 08:02:14;;;;;;;9.38;5.85;;;;;;;;;;5047383;28;20106;-85
2021/08/20 08:04:58;;;;;;;9.68;5.95;;;;;;;;;;5048771;28;20047;-87
2021/08/20 08:07:43;;;;;;;9.30;5.97;;;;;;;;;;5048309;28;20048;-83
2021/08/20 08:10:27;;;;;;;8.35;5.57;;;;;;;;;;5033072;28;20086;-85
2021/08/20 08:13:12;;;;;;;10.00;5.78;;;;;;;;;;5048217;28;20148;-86
2021/08/20 08:15:56;;;;;;;9.02;5.75;;;;;;;;;;5046641;28;20032;-86
2021/08/20 08:18:41;;;;;;;8.23;5.07;;;;;;;;;;5046900;28;20480;-86
2021/08/20 08:21:25;;;;;;;8.68;5.65;;;;;;;;;;5046531;28;20087;-86
2021/08/20 08:24:10;;;;;;;8.27;5.30;;;;;;;;;;5046773;28;20197;-80
2021/08/20 08:26:55;;;;;;;8.98;5.20;;;;;;;;;;5046541;28;20044;-86
2021/08/20 08:29:40;;;;;;;8.75;5.95;;;;;;;;;;5046480;28;20036;-86
2021/08/20 08:32:24;;;;;;;7.88;5.38;;;;;;;;;;5048853;28;20091;-80
2021/08/20 08:35:09;;;;;;;9.63;5.88;;;;;;;;;;5048346;28;20122;-86
2021/08/20 08:37:54;;;;;;;9.27;5.47;;;;;;;;;;5050553;28;20133;-85
2021/08/20 08:40:39;;;;;;;8.02;5.35;;;;;;;;;;5049459;28;20052;-85
2021/08/20 08:43:24;;;;;;;6.68;4.70;;;;;;;;;;5049435;28;20070;-86
2021/08/20 08:46:10;;;;;;;6.13;4.68;;;;;;;;;;5049371;28;20834;-85
2021/08/20 08:48:54;;;;;;;7.18;5.32;;;;;;;;;;5044827;28;20048;-85
2021/08/20 08:51:39;;;;;;;7.03;4.55;;;;;;;;;;5046119;28;20445;-77
2021/08/20 08:54:23;;;;;;;8.20;5.18;;;;;;;;;;5047552;28;20660;-86
2021/08/20 08:57:08;;;;;;;6.47;4.72;;;;;;;;;;5045230;28;20047;-86
2021/08/20 08:59:52;;;;;;;7.80;5.10;;;;;;;;;;5047072;28;20604;-81
2021/08/20 09:02:37;;;;;;;8.00;4.45;;;;;;;;;;5045398;28;20418;-85
2021/08/20 09:05:21;;;;;;;7.43;5.05;;;;;;;;;;5044355;28;20102;-86
2021/08/20 09:08:10;;;;;;;6.63;4.95;;;;;;;;;;5047967;28;20043;-85
2021/08/20 09:10:55;;;;;;;7.68;4.68;;;;;;;;;;5047709;28;20040;-85
2021/08/20 09:13:40;;;;;;;6.75;4.60;;;;;;;;;;5046038;28;20079;-86
2021/08/20 09:16:24;;;;;;;6.30;4.60;;;;;;;;;;5046497;28;20094;-86
2021/08/20 09:19:10;;;;;;;6.53;4.65;;;;;;;;;;5045319;28;20059;-83
2021/08/20 09:21:58;;;;;;;7.40;5.05;;;;;;;;;;5046364;28;20541;-86
2021/08/20 09:24:43;;;;;;;7.00;5.20;;;;;;;;;;5047394;28;20048;-86
2021/08/20 09:27:29;;;;;;;6.57;5.07;;;;;;;;;;5047401;28;20060;-87
2021/08/20 09:30:18;;;;;;;6.90;4.88;;;;;;;;;;5045722;28;20459;-82
2021/08/20 09:33:02;;;;;;;6.63;4.85;;;;;;;;;;5046294;28;20040;-85
2021/08/20 09:35:55;;;;;;;6.63;4.55;;;;;;;;;;5046043;28;20048;-86
2021/08/20 09:38:41;;;;;;;6.95;4.68;;;;;;;;;;5042193;28;20047;-86
2021/08/20 09:41:30;;;;;;;7.07;4.85;;;;;;;;;;5044413;28;20579;-86
2021/08/20 09:44:20;;;;;;;6.55;4.32;;;;;;;;;;5041339;28;20098;-76
2021/08/20 09:47:05;;;;;;;6.43;4.47;;;;;;;;;;5041317;28;20056;-79
2021/08/20 09:49:57;;;;;;;5.88;5.03;;;;;;;;;;5042224;28;20424;-86
2021/08/20 09:52:41;;;;;;;6.18;4.45;;;;;;;;;;5028683;28;20064;-88
2021/08/20 09:55:36;;;;;;;7.00;4.53;;;;;;;;;;5044315;28;20068;-86
2021/08/20 09:58:21;;;;;;;5.72;4.55;;;;;;;;;;5045585;28;20043;-86
2021/08/20 10:01:05;;;;;;;6.00;4.68;;;;;;;;;;5045271;28;20059;-87
2021/08/20 10:03:53;;;;;;;6.90;4.75;;;;;;;;;;5044250;28;20530;-87
2021/08/20 10:06:41;;;;;;;8.25;4.90;;;;;;;;;;5042097;28;20044;-87
2021/08/20 10:09:26;;;;;;;7.18;4.82;;;;;;;;;;5045120;28;20116;-87
2021/08/20 10:12:11;;;;;;;6.10;4.35;;;;;;;;;;5043951;28;20060;-87
2021/08/20 10:14:55;;;;;;;5.25;4.25;;;;;;;;;;5030442;28;20047;-87
2021/08/20 10:17:40;;;;;;;6.10;4.13;;;;;;;;;;5045107;28;20044;-87
2021/08/20 10:20:24;;;;;;;5.70;4.40;;;;;;;;;;5044281;28;20072;-87
2021/08/20 10:23:15;;;;;;;5.40;3.97;;;;;;;;;;5043943;28;20090;-87
2021/08/20 10:25:59;;;;;;;5.22;4.32;;;;;;;;;;5042437;28;20044;-86
2021/08/20 10:28:44;;;;;;;5.60;4.00;;;;;;;;;;5044008;28;20390;-87
2021/08/20 10:31:28;;;;;;;5.40;4.00;;;;;;;;;;5043801;28;20405;-85
2021/08/20 10:34:31;;;;;;;5.20;4.03;;;;;;;;;;5042286;28;20506;-87
2021/08/20 10:37:25;;;;;;;5.72;4.25;;;;;;;;;;5044881;28;20044;-87
2021/08/20 10:40:23;;;;;;;5.47;4.20;;;;;;;;;;5043116;28;20101;-87
2021/08/20 10:43:07;;;;;;;5.28;4.18;;;;;;;;;;5044128;28;20528;-87
2021/08/20 10:45:52;;;;;;;5.03;3.83;;;;;;;;;;5043374;28;20039;-77
2021/08/20 10:48:37;;;;;;;5.25;3.78;;;;;;;;;;5044913;28;20044;-87
2021/08/20 10:51:40;;;;;;;5.45;4.10;;;;;;;;;;5042708;28;20421;-87
2021/08/20 10:54:31;;;;;;;5.25;3.53;;;;;;;;;;5044761;28;20095;-87
2021/08/20 10:57:35;;;;;;;5.22;3.70;;;;;;;;;;5043344;28;20474;-86
2021/08/20 11:00:19;;;;;;;4.93;3.85;;;;;;;;;;5044571;28;20040;-87
2021/08/20 11:03:05;;;;;;;5.78;3.30;;;;;;;;;;5043344;28;20044;-88
2021/08/20 11:05:50;;;;;;;5.28;3.50;;;;;;;;;;5043299;28;20047;-84
2021/08/20 11:08:35;;;;;;;5.35;4.07;;;;;;;;;;5044561;28;20035;-86
2021/08/20 11:11:38;;;;;;;6.13;3.80;;;;;;;;;;5044831;28;20044;-88
2021/08/20 11:14:24;;;;;;;4.82;3.60;;;;;;;;;;5046061;28;20067;-87
2021/08/20 11:17:10;;;;;;;4.57;3.30;;;;;;;;;;5047530;28;20822;-87
2021/08/20 11:19:55;;;;;;;4.63;3.25;;;;;;;;;;5043485;28;20043;-86
2021/08/20 11:22:40;;;;;;;4.70;3.53;;;;;;;;;;5046819;28;20473;-86
2021/08/20 11:25:25;;;;;;;4.03;3.25;;;;;;;;;;5047394;28;20459;-87
2021/08/20 11:28:18;;;;;;;5.13;3.55;;;;;;;;;;5047339;28;20063;-87
2021/08/20 11:31:11;;;;;;;4.55;3.35;;;;;;;;;;5046335;28;20544;-83
2021/08/20 11:33:57;;;;;;;4.15;3.05;;;;;;;;;;5048401;28;20714;-86
2021/08/20 11:36:45;;;;;;;4.63;3.38;;;;;;;;;;5046289;28;20043;-85
2021/08/20 11:39:31;;;;;;;4.60;3.33;;;;;;;;;;5047821;28;20066;-85
2021/08/20 11:42:16;;;;;;;4.20;3.22;;;;;;;;;;5046140;28;20056;-86
2021/08/20 11:45:20;;;;;;;5.40;3.65;;;;;;;;;;5046575;28;20043;-86
2021/08/20 11:48:05;;;;;;;4.78;3.42;;;;;;;;;;5045357;28;20062;-85
2021/08/20 11:50:50;;;;;;;4.75;3.25;;;;;;;;;;5046829;28;20516;-84
2021/08/20 11:53:34;;;;;;;4.80;3.25;;;;;;;;;;5030619;28;20471;-84
2021/08/20 11:56:19;;;;;;;5.90;3.50;;;;;;;;;;5032813;28;20075;-84
2021/08/20 11:59:10;;;;;;;4.82;3.40;;;;;;;;;;5047507;28;20044;-84
2021/08/20 12:01:55;;;;;;;4.22;3.28;;;;;;;;;;5047413;28;20871;-83
2021/08/20 12:04:39;;;;;;;3.83;2.97;;;;;;;;;;5045176;28;20091;-83
2021/08/20 12:07:34;;;;;;;4.38;3.28;;;;;;;;;;5046321;28;20056;-84
2021/08/20 12:10:19;;;;;;;5.18;3.38;;;;;;;;;;5031924;28;20120;-85
2021/08/20 12:13:03;;;;;;;4.40;3.30;;;;;;;;;;5046760;28;20083;-84
2021/08/20 12:15:47;;;;;;;4.75;3.38;;;;;;;;;;5046167;28;20043;-85
2021/08/20 12:18:32;;;;;;;5.15;3.30;;;;;;;;;;5047385;28;20094;-83
2021/08/20 12:21:17;;;;;;;4.60;3.50;;;;;;;;;;5047223;28;20757;-84
2021/08/20 12:24:02;;;;;;;4.05;3.20;;;;;;;;;;5029151;28;20051;-84
2021/08/20 12:26:46;;;;;;;4.65;3.30;;;;;;;;;;5045547;28;20527;-83
2021/08/20 12:29:31;;;;;;;4.55;3.13;;;;;;;;;;5044253;28;20039;-85
2021/08/20 12:32:21;;;;;;;4.57;3.10;;;;;;;;;;5046885;28;20468;-83
2021/08/20 12:35:07;;;;;;;4.97;3.20;;;;;;;;;;5046717;28;20508;-85
2021/08/20 12:38:10;;;;;;;4.38;2.92;;;;;;;;;;5031905;28;20047;-84
2021/08/20 12:40:55;;;;;;;4.15;2.80;;;;;;;;;;5045304;28;20044;-83
2021/08/20 12:43:40;;;;;;;4.97;3.42;;;;;;;;;;5043689;28;20102;-84
2021/08/20 12:46:33;;;;;;;4.78;3.40;;;;;;;;;;5047173;28;20148;-84
2021/08/20 12:49:18;;;;;;;4.80;3.25;;;;;;;;;;5045488;28;20055;-84
2021/08/20 12:52:03;;;;;;;5.15;3.08;;;;;;;;;;5045899;28;20095;-84
2021/08/20 12:54:48;;;;;;;4.15;3.08;;;;;;;;;;5043793;28;20572;-84
2021/08/20 12:57:32;;;;;;;4.13;3.10;;;;;;;;;;5045236;28;20043;-76
2021/08/20 13:00:17;;;;;;;4.70;3.35;;;;;;;;;;5043024;28;20222;-83
2021/08/20 13:03:02;;;;;;;3.45;2.80;;;;;;;;;;5046150;28;20171;-83
2021/08/20 13:05:54;;;;;;;4.50;3.10;;;;;;;;;;5045373;28;20051;-85
2021/08/20 13:08:38;;;;;;;5.25;3.38;;;;;;;;;;5046817;28;20056;-86
2021/08/20 13:11:23;;;;;;;6.07;3.10;;;;;;;;;;5045299;28;20056;-76
2021/08/20 13:14:08;;;;;;;5.20;3.20;;;;;;;;;;5046069;28;20044;-84
2021/08/20 13:16:55;;;;;;;4.85;3.25;;;;;;;;;;5047950;28;20144;-84
2021/08/20 13:19:39;;;;;;;4.82;3.30;;;;;;;;;;5048945;28;20091;-77
2021/08/20 13:22:24;;;;;;;4.25;3.13;;;;;;;;;;5063831;28;20051;-85
2021/08/20 13:25:09;;;;;;;5.53;3.15;;;;;;;;;;5052561;28;20082;-83
2021/08/20 13:27:53;;;;;;;4.65;3.00;;;;;;;;;;5045549;28;20748;-84
2021/08/20 13:30:39;;;;;;;4.88;3.30;;;;;;;;;;5043279;28;20044;-80
2021/08/20 13:33:24;;;;;;;4.68;3.13;;;;;;;;;;5031657;28;20413;-83
2021/08/20 13:36:09;;;;;;;4.25;3.10;;;;;;;;;;5046121;28;20069;-81
2021/08/20 13:38:53;;;;;;;4.97;2.92;;;;;;;;;;5044835;28;20043;-82
2021/08/20 13:41:38;;;;;;;4.90;3.13;;;;;;;;;;5032311;28;20052;-83
2021/08/20 13:44:22;;;;;;;4.30;2.95;;;;;;;;;;5046917;28;20094;-84
2021/08/20 13:47:07;;;;;;;4.05;2.80;;;;;;;;;;5045631;28;20135;-83
2021/08/20 13:49:51;;;;;;;3.92;2.90;;;;;;;;;;5047972;28;20481;-84
2021/08/20 13:52:36;;;;;;;4.55;2.85;;;;;;;;;;5044491;28;20147;-84
2021/08/20 13:55:21;;;;;;;3.88;2.67;;;;;;;;;;5031888;28;20104;-84
2021/08/20 13:58:05;;;;;;;3.90;2.92;;;;;;;;;;5044047;28;20095;-85
2021/08/20 14:00:50;;;;;;;4.10;3.20;;;;;;;;;;5044940;28;20052;-87
2021/08/20 14:03:35;;;;;;;4.50;2.83;;;;;;;;;;5045369;28;20509;-88
2021/08/20 14:06:19;;;;;;;4.13;2.97;;;;;;;;;;5045762;28;20039;-88
2021/08/20 14:09:04;;;;;;;4.05;3.13;;;;;;;;;;5046911;28;20075;-88
2021/08/20 14:11:49;;;;;;;4.35;3.30;;;;;;;;;;5045082;28;20092;-80
2021/08/20 14:14:34;;;;;;;5.00;3.35;;;;;;;;;;5046583;28;20048;-88
2021/08/20 14:17:19;;;;;;;4.38;3.00;;;;;;;;;;5045392;28;20044;-89
2021/08/20 14:20:08;;;;;;;3.72;3.05;;;;;;;;;;5032633;28;20063;-89
2021/08/20 14:22:53;;;;;;;5.93;3.10;;;;;;;;;;5045655;28;20095;-89
2021/08/20 14:25:37;;;;;;;4.68;3.25;;;;;;;;;;5046786;28;20102;-88
2021/08/20 14:28:21;;;;;;;3.85;2.85;;;;;;;;;;5046034;28;20452;-90
2021/08/20 14:31:06;;;;;;;3.88;2.97;;;;;;;;;;5046451;28;20155;-87
2021/08/20 14:33:50;;;;;;;4.53;3.08;;;;;;;;;;5044715;28;20040;-91
2021/08/20 14:36:35;;;;;;;3.95;2.70;;;;;;;;;;5046429;28;20051;-87
2021/08/20 14:39:20;;;;;;;3.90;2.90;;;;;;;;;;5046101;28;20054;-88
2021/08/20 14:42:04;;;;;;;4.40;2.70;;;;;;;;;;5047528;28;20094;-90
2021/08/20 14:44:49;;;;;;;4.22;2.72;;;;;;;;;;5047349;28;20075;-89
2021/08/20 14:47:34;;;;;;;3.78;2.70;;;;;;;;;;5046046;28;20532;-90
2021/08/20 14:50:18;;;;;;;4.82;2.80;;;;;;;;;;5046860;28;20106;-89
2021/08/20 14:53:03;;;;;;;4.00;2.85;;;;;;;;;;5031882;28;20489;-92
2021/08/20 14:55:48;;;;;;;4.68;2.90;;;;;;;;;;5031185;28;20160;-91
2021/08/20 14:58:32;;;;;;;3.70;2.50;;;;;;;;;;5047080;28;20044;-91
2021/08/20 15:01:17;;;;;;;3.78;2.85;;;;;;;;;;5047928;28;20524;-90
2021/08/20 15:04:01;;;;;;;3.85;2.60;;;;;;;;;;5046046;28;20071;-90
2021/08/20 15:06:46;;;;;;;3.90;2.90;;;;;;;;;;5046286;28;20063;-90
2021/08/20 15:09:30;;;;;;;3.92;2.80;;;;;;;;;;5047608;28;20086;-91
2021/08/20 15:12:15;;;;;;;4.57;3.08;;;;;;;;;;5047358;28;20043;-90
2021/08/20 15:15:00;;;;;;;4.45;2.80;;;;;;;;;;5046330;28;20036;-90
2021/08/20 15:17:44;;;;;;;6.15;3.25;;;;;;;;;;5046812;28;20060;-90
2021/08/20 15:20:29;;;;;;;3.90;2.67;;;;;;;;;;5047194;28;20067;-91
2021/08/20 15:23:14;;;;;;;3.70;2.85;;;;;;;;;;5047644;28;20559;-90
2021/08/20 15:25:58;;;;;;;4.35;2.67;;;;;;;;;;5045901;28;20047;-90
2021/08/20 15:28:43;;;;;;;4.63;2.85;;;;;;;;;;5032112;28;20058;-87
2021/08/20 15:31:28;;;;;;;4.05;2.72;;;;;;;;;;5045200;28;20505;-87
2021/08/20 15:34:13;;;;;;;4.75;2.70;;;;;;;;;;5044630;28;20087;-89
2021/08/20 15:36:58;;;;;;;3.85;2.60;;;;;;;;;;5032129;28;20044;-90
2021/08/20 15:39:42;;;;;;;3.20;2.30;;;;;;;;;;5032134;28;20044;-90
2021/08/20 15:42:27;;;;;;;3.70;2.45;;;;;;;;;;5045843;28;20651;-85
2021/08/20 15:45:12;;;;;;;2.92;2.35;;;;;;;;;;5016833;28;20114;-83
2021/08/20 15:47:57;;;;;;;3.80;2.38;;;;;;;;;;5023824;28;20044;-88
2021/08/20 15:50:42;;;;;;;3.10;2.40;;;;;;;;;;5027230;28;20048;-89
2021/08/20 15:53:26;;;;;;;3.78;2.30;;;;;;;;;;5026417;28;20099;-89
2021/08/20 15:56:11;;;;;;;4.05;2.53;;;;;;;;;;5039830;28;20091;-90
2021/08/20 15:58:55;;;;;;;3.28;2.30;;;;;;;;;;5042723;28;20064;-88
2021/08/20 16:01:40;;;;;;;3.50;2.05;;;;;;;;;;5043972;28;20103;-90
2021/08/20 16:04:24;;;;;;;3.42;2.38;;;;;;;;;;5030750;28;20043;-88
2021/08/20 16:07:09;;;;;;;3.08;1.90;;;;;;;;;;5042572;28;20068;-89
2021/08/20 16:09:54;;;;;;;2.58;1.92;;;;;;;;;;5028628;28;20072;-90
2021/08/20 16:12:41;;;;;;;4.15;2.15;;;;;;;;;;5029342;28;20045;-89
2021/08/20 16:15:26;;;;;;;3.13;2.00;;;;;;;;;;5043456;28;20603;-90
2021/08/20 16:18:10;;;;;;;2.75;2.03;;;;;;;;;;5044067;28;20056;-90
2021/08/20 16:20:55;;;;;;;2.72;1.98;;;;;;;;;;5043902;28;20445;-89
2021/08/20 16:23:39;;;;;;;3.05;2.10;;;;;;;;;;5043202;28;20107;-90
2021/08/20 16:26:24;;;;;;;2.47;1.90;;;;;;;;;;5042239;28;20053;-88
2021/08/20 16:29:09;;;;;;;3.45;2.10;;;;;;;;;;5041946;28;20044;-84
2021/08/20 16:31:53;;;;;;;2.67;2.00;;;;;;;;;;5040736;28;20039;-87